LFRQ

Quimper-Cornouaille Airport

Airport
ICAO code
LFRQ
IATA Code
UIP
Summary
ICAO Region
EUR
ICAO Territory
Location

, Bretagne

Serving
Quimper
Elevation
297 ft
Coordinates
47° 58' 30" N , 4° 10' 4" W
Metar
LFRQ 240530Z AUTO 27008KT 230V290 9999 ///TCU 06/04 Q0998 TEMPO VRB20G45KT 1500 TSRAGS BKN013 BKN030CB

Runways

Designator Length Width Surface Rops
4/22 810 45 ASP No/No
10/28 2150 45 ASP Yes/Yes

Airport map

Aerial View

SKYbrary Partners:

Safety knowledge contributed by: